Time;durP1;ratioP1;P1;durP2;ratioP2;P2;SDS_P1;SDS_P2;PMS_P1;PMS_P2;Temp;Humidity;BMP_temperature;BMP_pressure;BME280_temperature;BME280_humidity;BME280_pressure;Samples;Min_cycle;Max_cycle;Signal;HPM_P1;HPM_P2
2022/08/28 00:00:54;;;;;;;32.92;9.43;;;;;;;;;;5070214;28;20094;-75
2022/08/28 00:03:19;;;;;;;30.13;9.60;;;;;;;;;;5053324;28;20035;-74
2022/08/28 00:05:44;;;;;;;21.35;9.38;;;;;;;;;;5050743;28;21469;-74
2022/08/28 00:08:11;;;;;;;24.30;9.93;;;;;;;;;;5029424;28;20019;-74
2022/08/28 00:10:38;;;;;;;25.38;9.43;;;;;;;;;;5059197;28;20027;-74
2022/08/28 00:13:06;;;;;;;21.40;9.57;;;;;;;;;;5053849;28;20466;-75
2022/08/28 00:15:33;;;;;;;15.80;8.55;;;;;;;;;;5051246;28;20104;-74
2022/08/28 00:17:58;;;;;;;19.88;8.88;;;;;;;;;;5042255;28;20027;-75
2022/08/28 00:20:24;;;;;;;20.98;9.10;;;;;;;;;;5048672;28;20025;-74
2022/08/28 00:22:51;;;;;;;19.60;8.77;;;;;;;;;;5077863;28;20194;-74
2022/08/28 00:25:17;;;;;;;20.45;8.88;;;;;;;;;;5057585;28;20044;-76
2022/08/28 00:27:51;;;;;;;23.10;10.20;;;;;;;;;;5063128;28;20047;-75
2022/08/28 00:30:34;;;;;;;24.38;10.25;;;;;;;;;;5077101;28;20123;-75
2022/08/28 00:33:05;;;;;;;26.75;11.43;;;;;;;;;;5059883;28;20024;-75
2022/08/28 00:35:30;;;;;;;20.23;9.75;;;;;;;;;;5030211;28;20020;-75
2022/08/28 00:37:56;;;;;;;24.08;10.05;;;;;;;;;;5017840;28;20021;-75
2022/08/28 00:40:22;;;;;;;20.50;9.70;;;;;;;;;;5037972;28;20162;-75
2022/08/28 00:42:47;;;;;;;22.50;10.45;;;;;;;;;;5048497;28;20338;-75
2022/08/28 00:45:14;;;;;;;21.35;10.52;;;;;;;;;;5052115;28;20077;-76
2022/08/28 00:47:39;;;;;;;25.90;10.88;;;;;;;;;;5069884;28;20052;-75
2022/08/28 00:50:06;;;;;;;23.80;11.02;;;;;;;;;;5034847;28;20115;-75
2022/08/28 00:52:31;;;;;;;20.88;9.65;;;;;;;;;;5025164;28;20032;-75
2022/08/28 00:55:03;;;;;;;25.52;11.00;;;;;;;;;;5034371;28;20064;-75
2022/08/28 00:57:39;;;;;;;23.53;11.47;;;;;;;;;;5033448;28;20055;-75
2022/08/28 01:00:10;;;;;;;29.45;10.57;;;;;;;;;;5065363;28;20082;-75
2022/08/28 01:02:35;;;;;;;20.75;10.68;;;;;;;;;;5053473;28;20032;-74
2022/08/28 01:05:00;;;;;;;19.42;10.48;;;;;;;;;;5067416;28;20122;-74
2022/08/28 01:07:26;;;;;;;25.45;11.02;;;;;;;;;;5066686;28;20059;-74
2022/08/28 01:09:52;;;;;;;35.70;12.77;;;;;;;;;;5048748;28;20064;-74
2022/08/28 01:12:26;;;;;;;28.88;12.45;;;;;;;;;;5058414;28;20028;-75
2022/08/28 01:14:53;;;;;;;27.50;11.10;;;;;;;;;;5074111;28;20057;-75
2022/08/28 01:17:19;;;;;;;25.05;11.60;;;;;;;;;;5081133;28;20024;-75
2022/08/28 01:19:50;;;;;;;23.50;12.35;;;;;;;;;;5035726;28;20079;-75
2022/08/28 01:22:38;;;;;;;28.08;12.27;;;;;;;;;;5044330;28;20063;-75
2022/08/28 01:25:06;;;;;;;27.80;12.45;;;;;;;;;;5030143;28;20041;-76
2022/08/28 01:27:31;;;;;;;23.15;11.90;;;;;;;;;;5043770;28;20444;-75
2022/08/28 01:29:56;;;;;;;27.73;12.15;;;;;;;;;;5072465;28;20040;-75
2022/08/28 01:32:33;;;;;;;25.00;13.32;;;;;;;;;;5072791;28;20057;-75
2022/08/28 01:34:59;;;;;;;30.23;12.75;;;;;;;;;;5058695;28;20051;-75
2022/08/28 01:37:24;;;;;;;27.10;12.80;;;;;;;;;;5036527;28;20021;-75
2022/08/28 01:39:50;;;;;;;24.85;12.32;;;;;;;;;;5038536;28;20043;-75
2022/08/28 01:42:16;;;;;;;20.63;12.80;;;;;;;;;;5032237;28;20163;-75
2022/08/28 01:44:41;;;;;;;26.77;13.02;;;;;;;;;;5061306;28;20059;-75
2022/08/28 01:47:06;;;;;;;26.88;13.43;;;;;;;;;;5071892;28;20024;-75
2022/08/28 01:49:32;;;;;;;30.17;13.30;;;;;;;;;;5075556;28;20487;-75
2022/08/28 01:51:57;;;;;;;25.40;14.00;;;;;;;;;;5047026;28;20033;-75
2022/08/28 01:54:27;;;;;;;30.88;14.88;;;;;;;;;;5032126;28;20051;-74
2022/08/28 01:56:52;;;;;;;36.22;15.48;;;;;;;;;;5052275;28;20216;-75
2022/08/28 01:59:18;;;;;;;37.20;16.08;;;;;;;;;;5066759;28;20092;-74
2022/08/28 02:01:43;;;;;;;23.95;13.10;;;;;;;;;;5074597;28;20047;-75
2022/08/28 02:04:09;;;;;;;39.20;15.27;;;;;;;;;;5069685;28;20047;-74
2022/08/28 02:06:35;;;;;;;27.58;15.18;;;;;;;;;;5048713;28;20573;-74
2022/08/28 02:09:00;;;;;;;20.50;14.27;;;;;;;;;;5058087;28;20687;-75
2022/08/28 02:11:28;;;;;;;23.63;13.48;;;;;;;;;;5050942;28;20024;-75
2022/08/28 02:13:53;;;;;;;23.70;14.23;;;;;;;;;;5049433;28;20028;-74
2022/08/28 02:16:18;;;;;;;31.65;15.02;;;;;;;;;;5085465;28;20060;-75
2022/08/28 02:18:44;;;;;;;28.73;13.30;;;;;;;;;;5064122;28;20026;-74
2022/08/28 02:21:09;;;;;;;27.25;13.25;;;;;;;;;;5036749;28;20060;-74
2022/08/28 02:23:36;;;;;;;39.75;14.85;;;;;;;;;;5065410;28;20033;-74
2022/08/28 02:26:02;;;;;;;32.63;14.48;;;;;;;;;;5044966;28;20041;-74
2022/08/28 02:28:28;;;;;;;29.63;14.45;;;;;;;;;;5085512;28;20110;-74
2022/08/28 02:30:53;;;;;;;24.50;13.75;;;;;;;;;;5064750;28;20036;-74
2022/08/28 02:33:18;;;;;;;27.45;14.40;;;;;;;;;;5060281;28;20035;-74
2022/08/28 02:35:44;;;;;;;36.47;14.05;;;;;;;;;;5069823;28;20104;-74
2022/08/28 02:38:12;;;;;;;34.78;14.77;;;;;;;;;;5072045;28;20073;-75
2022/08/28 02:40:38;;;;;;;24.30;13.55;;;;;;;;;;5070279;28;20039;-74
2022/08/28 02:43:04;;;;;;;24.65;14.77;;;;;;;;;;5055021;28;20385;-75
2022/08/28 02:45:29;;;;;;;32.78;14.80;;;;;;;;;;5065876;28;20028;-75
2022/08/28 02:47:55;;;;;;;32.00;13.85;;;;;;;;;;5084874;28;20043;-75
2022/08/28 02:50:21;;;;;;;24.73;13.48;;;;;;;;;;5089064;28;20365;-75
2022/08/28 02:52:47;;;;;;;27.00;14.20;;;;;;;;;;5041833;28;20404;-75
2022/08/28 02:55:14;;;;;;;22.30;13.88;;;;;;;;;;5043716;28;20044;-75
2022/08/28 02:57:40;;;;;;;30.52;13.63;;;;;;;;;;5034935;28;20044;-75
2022/08/28 03:00:13;;;;;;;24.92;13.15;;;;;;;;;;5051448;28;20448;-75
2022/08/28 03:02:39;;;;;;;32.55;14.15;;;;;;;;;;5072314;28;20031;-75
2022/08/28 03:05:04;;;;;;;26.45;13.52;;;;;;;;;;5063607;28;20040;-75
2022/08/28 03:07:30;;;;;;;22.90;11.93;;;;;;;;;;5035336;28;20116;-75
2022/08/28 03:09:55;;;;;;;25.63;12.38;;;;;;;;;;5070041;28;20108;-73
2022/08/28 03:12:23;;;;;;;27.50;12.75;;;;;;;;;;5085802;28;20024;-74
2022/08/28 03:14:50;;;;;;;22.63;12.10;;;;;;;;;;5076688;28;20066;-74
2022/08/28 03:17:15;;;;;;;20.02;12.55;;;;;;;;;;5048289;28;20468;-75
2022/08/28 03:19:41;;;;;;;28.55;14.00;;;;;;;;;;5051514;28;20039;-76
2022/08/28 03:22:06;;;;;;;24.13;12.45;;;;;;;;;;5058974;28;20448;-76
2022/08/28 03:24:32;;;;;;;31.27;14.68;;;;;;;;;;5059555;28;20115;-75
2022/08/28 03:26:58;;;;;;;31.05;15.00;;;;;;;;;;5054485;28;20124;-75
2022/08/28 03:29:24;;;;;;;27.90;14.27;;;;;;;;;;5069750;28;20135;-74
2022/08/28 03:31:49;;;;;;;26.67;14.63;;;;;;;;;;5074120;28;20586;-75
2022/08/28 03:34:15;;;;;;;28.33;14.80;;;;;;;;;;5075243;28;20056;-75
2022/08/28 03:36:40;;;;;;;29.15;14.63;;;;;;;;;;5057535;28;20032;-75
2022/08/28 03:39:05;;;;;;;26.75;14.50;;;;;;;;;;5053553;28;20032;-75
2022/08/28 03:41:31;;;;;;;24.33;13.65;;;;;;;;;;5082670;28;20591;-75
2022/08/28 03:43:57;;;;;;;27.23;14.98;;;;;;;;;;5074715;28;20032;-75
2022/08/28 03:46:23;;;;;;;29.15;14.02;;;;;;;;;;5068538;28;20496;-75
2022/08/28 03:48:49;;;;;;;41.28;14.52;;;;;;;;;;5055746;28;20074;-75
2022/08/28 03:51:25;;;;;;;27.45;12.95;;;;;;;;;;5064702;28;20038;-75
2022/08/28 03:53:51;;;;;;;26.77;12.20;;;;;;;;;;5063700;28;20029;-74
2022/08/28 03:56:20;;;;;;;27.75;13.52;;;;;;;;;;5068819;28;20470;-75
2022/08/28 03:58:47;;;;;;;28.05;12.38;;;;;;;;;;5061944;28;20487;-75
2022/08/28 04:01:15;;;;;;;29.63;11.63;;;;;;;;;;5069037;28;20036;-75
2022/08/28 04:03:46;;;;;;;26.85;13.15;;;;;;;;;;5069306;28;20032;-75
2022/08/28 04:06:11;;;;;;;27.17;14.07;;;;;;;;;;5063463;28;20107;-75
2022/08/28 04:08:37;;;;;;;26.70;12.90;;;;;;;;;;5078774;28;20038;-75
2022/08/28 04:11:02;;;;;;;26.48;13.25;;;;;;;;;;5087984;28;20035;-75
2022/08/28 04:13:28;;;;;;;28.38;12.95;;;;;;;;;;5038153;28;20024;-75
2022/08/28 04:16:10;;;;;;;26.92;13.65;;;;;;;;;;5067526;28;20115;-75
2022/08/28 04:18:40;;;;;;;32.03;14.15;;;;;;;;;;5053284;28;20089;-75
2022/08/28 04:21:07;;;;;;;28.05;13.95;;;;;;;;;;5068490;28;20116;-75
2022/08/28 04:23:34;;;;;;;28.73;13.65;;;;;;;;;;5050203;28;20114;-75
2022/08/28 04:25:59;;;;;;;34.88;14.23;;;;;;;;;;5067897;28;20044;-75
2022/08/28 04:28:24;;;;;;;33.20;14.25;;;;;;;;;;5074284;28;20526;-75
2022/08/28 04:30:50;;;;;;;25.88;13.52;;;;;;;;;;5033536;28;20128;-75
2022/08/28 04:33:17;;;;;;;25.63;12.80;;;;;;;;;;5045910;28;20071;-75
2022/08/28 04:35:46;;;;;;;25.20;14.00;;;;;;;;;;5064884;28;20048;-75
2022/08/28 04:38:11;;;;;;;31.08;14.00;;;;;;;;;;5051722;28;20059;-75
2022/08/28 04:40:40;;;;;;;29.30;14.63;;;;;;;;;;5049493;28;20061;-75
2022/08/28 04:43:05;;;;;;;31.15;13.60;;;;;;;;;;5068033;28;20119;-75
2022/08/28 04:45:31;;;;;;;29.20;14.43;;;;;;;;;;5078346;28;20037;-75
2022/08/28 04:47:56;;;;;;;35.53;15.13;;;;;;;;;;5057174;28;20027;-74
2022/08/28 04:50:22;;;;;;;30.42;14.88;;;;;;;;;;5053424;28;20419;-76
2022/08/28 04:52:49;;;;;;;30.55;14.95;;;;;;;;;;5053353;28;20639;-75
2022/08/28 04:55:14;;;;;;;25.48;14.20;;;;;;;;;;5038444;28;20048;-75
2022/08/28 04:57:39;;;;;;;25.85;14.40;;;;;;;;;;5051855;28;20025;-75
2022/08/28 05:00:06;;;;;;;26.85;14.77;;;;;;;;;;5085342;28;20119;-75
2022/08/28 05:02:31;;;;;;;33.60;16.65;;;;;;;;;;5052305;28;20452;-75
2022/08/28 05:04:57;;;;;;;28.48;13.38;;;;;;;;;;5064431;28;20093;-75
2022/08/28 05:07:25;;;;;;;34.80;15.10;;;;;;;;;;5058692;28;20079;-75
2022/08/28 05:09:52;;;;;;;26.58;14.25;;;;;;;;;;5080574;28;20570;-75
2022/08/28 05:12:18;;;;;;;29.02;14.90;;;;;;;;;;5052786;28;20020;-75
2022/08/28 05:14:47;;;;;;;21.65;13.82;;;;;;;;;;5076362;28;20480;-75
2022/08/28 05:17:16;;;;;;;27.27;14.18;;;;;;;;;;5050063;28;20025;-75
2022/08/28 05:19:42;;;;;;;28.52;14.63;;;;;;;;;;5060807;28;20397;-75
2022/08/28 05:22:08;;;;;;;32.42;14.20;;;;;;;;;;5033391;28;20535;-75
2022/08/28 05:24:35;;;;;;;34.13;15.30;;;;;;;;;;5081306;28;20028;-76
2022/08/28 05:27:01;;;;;;;27.95;15.55;;;;;;;;;;5052332;28;20049;-75
2022/08/28 05:29:27;;;;;;;32.78;16.35;;;;;;;;;;5022385;28;20047;-75
2022/08/28 05:31:52;;;;;;;29.85;15.75;;;;;;;;;;5045750;28;20048;-75
2022/08/28 05:34:17;;;;;;;32.47;15.75;;;;;;;;;;5061576;28;20028;-75
2022/08/28 05:36:46;;;;;;;29.20;14.98;;;;;;;;;;5069855;28;20561;-75
2022/08/28 05:39:11;;;;;;;30.77;15.43;;;;;;;;;;5047897;28;20029;-75
2022/08/28 05:41:38;;;;;;;27.33;15.52;;;;;;;;;;5079148;28;20035;-75
2022/08/28 05:44:05;;;;;;;30.60;16.88;;;;;;;;;;5042312;28;20036;-75
2022/08/28 05:46:31;;;;;;;43.75;17.27;;;;;;;;;;5048038;28;20099;-75
2022/08/28 05:48:56;;;;;;;33.75;17.67;;;;;;;;;;5051959;28;20333;-75
2022/08/28 05:51:23;;;;;;;37.50;15.25;;;;;;;;;;5047882;28;20388;-75
2022/08/28 05:53:49;;;;;;;32.90;16.92;;;;;;;;;;5067508;28;20143;-75
2022/08/28 05:56:16;;;;;;;30.33;15.52;;;;;;;;;;5066529;28;20449;-75
2022/08/28 05:58:41;;;;;;;36.13;16.48;;;;;;;;;;5042229;28;20060;-75
2022/08/28 06:01:12;;;;;;;30.15;17.10;;;;;;;;;;5051290;28;20049;-75
2022/08/28 06:03:38;;;;;;;31.08;15.82;;;;;;;;;;5029472;28;20118;-75
2022/08/28 06:06:04;;;;;;;31.73;15.85;;;;;;;;;;5052654;28;20031;-75
2022/08/28 06:08:30;;;;;;;32.83;16.30;;;;;;;;;;5035264;28;20036;-75
2022/08/28 06:10:56;;;;;;;27.67;14.73;;;;;;;;;;5065234;28;20031;-75
2022/08/28 06:13:21;;;;;;;24.15;14.15;;;;;;;;;;5037702;28;20029;-75
2022/08/28 06:15:47;;;;;;;28.23;15.30;;;;;;;;;;5092718;28;20028;-75
2022/08/28 06:18:12;;;;;;;32.60;14.60;;;;;;;;;;5060696;28;20082;-75
2022/08/28 06:20:40;;;;;;;25.70;13.65;;;;;;;;;;5064342;28;20031;-75
2022/08/28 06:23:09;;;;;;;29.35;14.40;;;;;;;;;;5068572;28;20197;-75
2022/08/28 06:25:38;;;;;;;35.50;14.10;;;;;;;;;;5073705;28;20066;-75
2022/08/28 06:28:05;;;;;;;25.23;13.13;;;;;;;;;;5062880;28;20036;-75
2022/08/28 06:30:30;;;;;;;22.65;13.13;;;;;;;;;;5059648;28;20481;-75
2022/08/28 06:32:55;;;;;;;29.52;12.13;;;;;;;;;;5059038;28;20025;-75
2022/08/28 06:35:21;;;;;;;21.92;10.88;;;;;;;;;;5052194;28;20475;-75
2022/08/28 06:37:46;;;;;;;18.58;9.65;;;;;;;;;;5072865;28;20028;-75
2022/08/28 06:40:12;;;;;;;19.60;9.82;;;;;;;;;;5081534;28;20082;-76
2022/08/28 06:42:37;;;;;;;14.52;8.50;;;;;;;;;;5051916;28;20111;-75
2022/08/28 06:45:03;;;;;;;18.15;8.13;;;;;;;;;;5035333;28;20037;-76
2022/08/28 06:47:28;;;;;;;15.55;6.90;;;;;;;;;;5058944;28;20029;-75
2022/08/28 06:49:54;;;;;;;23.63;7.68;;;;;;;;;;5066540;28;20123;-74
2022/08/28 06:52:19;;;;;;;17.98;7.18;;;;;;;;;;5067886;28;20465;-70
2022/08/28 06:54:45;;;;;;;19.40;6.40;;;;;;;;;;5057850;28;20355;-70
2022/08/28 06:57:10;;;;;;;19.90;6.05;;;;;;;;;;5079712;28;20058;-70
2022/08/28 06:59:35;;;;;;;16.70;5.32;;;;;;;;;;5088918;28;20067;-70
2022/08/28 07:02:01;;;;;;;17.60;5.65;;;;;;;;;;5061220;28;20448;-70
2022/08/28 07:04:26;;;;;;;10.30;4.65;;;;;;;;;;5072356;28;20064;-70
2022/08/28 07:06:52;;;;;;;12.10;5.15;;;;;;;;;;5049277;28;20108;-71
2022/08/28 07:09:17;;;;;;;14.50;3.80;;;;;;;;;;5053737;28;20039;-71
2022/08/28 07:11:45;;;;;;;8.13;3.45;;;;;;;;;;5072413;28;20029;-70
2022/08/28 07:14:10;;;;;;;14.13;3.20;;;;;;;;;;5071957;28;20039;-70
2022/08/28 07:16:38;;;;;;;12.90;2.85;;;;;;;;;;5074296;28;20086;-70
2022/08/28 07:19:08;;;;;;;14.45;3.15;;;;;;;;;;5079285;28;20063;-71
2022/08/28 07:21:38;;;;;;;7.65;2.85;;;;;;;;;;5066707;28;20027;-70
2022/08/28 07:24:03;;;;;;;12.38;2.88;;;;;;;;;;5069851;28;20486;-71
2022/08/28 07:26:29;;;;;;;12.48;3.45;;;;;;;;;;5068522;28;20036;-71
2022/08/28 07:28:54;;;;;;;11.25;2.60;;;;;;;;;;5067581;28;20063;-71
2022/08/28 07:31:25;;;;;;;12.93;3.05;;;;;;;;;;5066804;28;20029;-70
2022/08/28 07:33:50;;;;;;;9.73;2.08;;;;;;;;;;5052965;28;20499;-71
2022/08/28 07:36:17;;;;;;;12.15;2.35;;;;;;;;;;5079887;28;20040;-70
2022/08/28 07:38:43;;;;;;;8.65;2.78;;;;;;;;;;5067151;28;20165;-70
2022/08/28 07:41:19;;;;;;;9.00;2.42;;;;;;;;;;5069575;28;20032;-71
2022/08/28 07:46:28;;;;;;;6.97;2.15;;;;;;;;;;5067718;28;20025;-70
2022/08/28 07:48:54;;;;;;;11.48;2.55;;;;;;;;;;5067020;28;20460;-71
2022/08/28 07:51:19;;;;;;;13.48;2.45;;;;;;;;;;5070252;28;20035;-71
2022/08/28 07:53:44;;;;;;;10.85;2.20;;;;;;;;;;5061013;28;20056;-71
2022/08/28 07:56:10;;;;;;;9.20;2.20;;;;;;;;;;5070165;28;20143;-72
2022/08/28 07:58:36;;;;;;;10.18;2.67;;;;;;;;;;5077674;28;20173;-72
2022/08/28 08:01:02;;;;;;;8.10;2.20;;;;;;;;;;5066330;28;20060;-72
2022/08/28 08:03:29;;;;;;;9.73;2.30;;;;;;;;;;5043810;28;20056;-72
2022/08/28 08:05:56;;;;;;;8.80;2.63;;;;;;;;;;5051772;28;20028;-71
2022/08/28 08:08:21;;;;;;;8.85;2.42;;;;;;;;;;5048969;28;20048;-72
2022/08/28 08:10:59;;;;;;;8.15;2.30;;;;;;;;;;5067417;28;20054;-72
2022/08/28 08:13:25;;;;;;;13.25;2.85;;;;;;;;;;5069050;28;20119;-72
2022/08/28 08:15:50;;;;;;;9.02;2.65;;;;;;;;;;5068151;28;20016;-71
2022/08/28 08:18:16;;;;;;;6.88;2.10;;;;;;;;;;5070002;28;20498;-71
2022/08/28 08:20:41;;;;;;;13.52;2.17;;;;;;;;;;5069283;28;20166;-72
2022/08/28 08:23:06;;;;;;;10.57;2.38;;;;;;;;;;5066445;28;20035;-71
2022/08/28 08:25:32;;;;;;;9.45;2.38;;;;;;;;;;5072544;28;20132;-71
2022/08/28 08:27:57;;;;;;;7.85;2.17;;;;;;;;;;5065582;28;20060;-72
2022/08/28 08:30:23;;;;;;;5.78;2.00;;;;;;;;;;5049153;28;20085;-72
2022/08/28 08:32:49;;;;;;;6.97;1.70;;;;;;;;;;5045943;28;20105;-73
2022/08/28 08:35:16;;;;;;;5.55;2.15;;;;;;;;;;5042676;28;20020;-75
2022/08/28 08:37:41;;;;;;;7.72;1.90;;;;;;;;;;5058225;28;20401;-75
2022/08/28 08:40:07;;;;;;;6.57;1.85;;;;;;;;;;5074962;28;20056;-75
2022/08/28 08:42:33;;;;;;;8.48;2.00;;;;;;;;;;5053623;28;20032;-75
2022/08/28 08:45:03;;;;;;;6.80;2.03;;;;;;;;;;5069919;28;20028;-75
2022/08/28 08:47:39;;;;;;;8.13;1.90;;;;;;;;;;5053593;28;20028;-74
2022/08/28 08:50:08;;;;;;;9.75;2.42;;;;;;;;;;5053296;28;20044;-75
2022/08/28 08:53:09;;;;;;;7.30;2.50;;;;;;;;;;5053392;28;20312;-74
2022/08/28 08:55:49;;;;;;;5.68;2.00;;;;;;;;;;5050163;28;20024;-74
2022/08/28 08:58:26;;;;;;;5.68;2.20;;;;;;;;;;5049082;28;20027;-74
2022/08/28 09:01:19;;;;;;;4.63;1.88;;;;;;;;;;5070121;28;20029;-74
2022/08/28 09:04:10;;;;;;;7.18;1.95;;;;;;;;;;5069222;28;20040;-75
2022/08/28 09:06:50;;;;;;;8.48;1.70;;;;;;;;;;5068864;28;20090;-75
2022/08/28 09:09:24;;;;;;;6.50;2.17;;;;;;;;;;5035935;28;20089;-75
2022/08/28 09:11:56;;;;;;;10.65;1.85;;;;;;;;;;5069488;28;20052;-77
2022/08/28 09:14:40;;;;;;;6.57;1.70;;;;;;;;;;5059840;28;20029;-76
2022/08/28 09:17:06;;;;;;;7.57;2.22;;;;;;;;;;5059724;28;20481;-75
2022/08/28 09:19:31;;;;;;;7.15;1.85;;;;;;;;;;5039308;28;20111;-73
2022/08/28 09:21:57;;;;;;;5.53;2.20;;;;;;;;;;5049068;28;20021;-77
2022/08/28 09:24:23;;;;;;;6.13;2.08;;;;;;;;;;5046580;28;20503;-76
2022/08/28 09:26:55;;;;;;;6.50;2.00;;;;;;;;;;5069024;28;20033;-72
2022/08/28 09:29:27;;;;;;;6.82;1.50;;;;;;;;;;5049668;28;20044;-77
2022/08/28 09:31:53;;;;;;;6.82;1.88;;;;;;;;;;5036490;28;20072;-76
2022/08/28 09:34:29;;;;;;;6.97;1.90;;;;;;;;;;5083293;28;20048;-75
2022/08/28 09:36:56;;;;;;;5.72;1.90;;;;;;;;;;5068727;28;20055;-75
2022/08/28 09:39:29;;;;;;;6.03;1.60;;;;;;;;;;5035587;28;20486;-76
2022/08/28 09:45:17;;;;;;;4.70;1.73;;;;;;;;;;5073496;28;20094;-75
2022/08/28 09:47:49;;;;;;;6.43;1.65;;;;;;;;;;5059080;28;20037;-75
2022/08/28 09:50:17;;;;;;;6.50;2.13;;;;;;;;;;5073497;28;20361;-75
2022/08/28 09:52:42;;;;;;;5.88;1.85;;;;;;;;;;5042141;28;20037;-76
2022/08/28 09:55:09;;;;;;;6.43;2.03;;;;;;;;;;5056857;28;20074;-75
2022/08/28 09:57:35;;;;;;;6.88;1.70;;;;;;;;;;5036170;28;20472;-75
2022/08/28 10:00:00;;;;;;;5.18;1.85;;;;;;;;;;5048982;28;20032;-75
2022/08/28 10:02:57;;;;;;;6.53;1.77;;;;;;;;;;5053405;28;20032;-74
2022/08/28 10:05:42;;;;;;;6.03;1.90;;;;;;;;;;5068981;28;20486;-74
2022/08/28 10:08:24;;;;;;;4.80;1.70;;;;;;;;;;5068055;28;20032;-74
2022/08/28 10:10:52;;;;;;;5.88;1.90;;;;;;;;;;5053621;28;20104;-74
2022/08/28 10:13:33;;;;;;;3.95;1.67;;;;;;;;;;5042532;28;20082;-74
2022/08/28 10:16:27;;;;;;;7.82;2.25;;;;;;;;;;5074566;28;20066;-74
2022/08/28 10:19:17;;;;;;;4.57;1.70;;;;;;;;;;5057377;28;21226;-74
2022/08/28 10:22:21;;;;;;;7.05;1.90;;;;;;;;;;5074997;28;20024;-74
2022/08/28 10:25:23;;;;;;;6.13;1.73;;;;;;;;;;5059954;28;20075;-74
2022/08/28 10:27:59;;;;;;;6.55;1.95;;;;;;;;;;5061372;28;20126;-76
2022/08/28 10:30:25;;;;;;;9.10;1.98;;;;;;;;;;5038703;28;20040;-76
2022/08/28 10:33:03;;;;;;;3.83;1.67;;;;;;;;;;5037318;28;20056;-76
2022/08/28 10:35:36;;;;;;;7.88;2.15;;;;;;;;;;5065982;28;20154;-76
2022/08/28 10:38:17;;;;;;;7.38;1.98;;;;;;;;;;5073596;28;20368;-76
2022/08/28 10:41:00;;;;;;;5.55;1.77;;;;;;;;;;5057921;28;20052;-76
2022/08/28 10:43:45;;;;;;;8.50;2.57;;;;;;;;;;5077612;28;20676;-75
2022/08/28 10:46:11;;;;;;;8.35;2.33;;;;;;;;;;5071855;28;20301;-75
2022/08/28 10:48:40;;;;;;;11.23;2.35;;;;;;;;;;5074180;28;20035;-75
2022/08/28 10:51:11;;;;;;;9.10;2.28;;;;;;;;;;5048690;28;20503;-73
2022/08/28 10:53:42;;;;;;;7.43;2.17;;;;;;;;;;5053728;28;20070;-73
2022/08/28 10:56:11;;;;;;;5.72;2.10;;;;;;;;;;5055288;28;20021;-73
2022/08/28 10:58:37;;;;;;;8.88;2.33;;;;;;;;;;5037100;28;20047;-74
2022/08/28 11:01:10;;;;;;;7.35;1.92;;;;;;;;;;5063146;28;20021;-74
2022/08/28 11:03:43;;;;;;;;;;;;;;;;;;5068549;28;20128;-73
2022/08/28 11:06:20;;;;;;;5.28;1.83;;;;;;;;;;5066437;28;19923;-74
2022/08/28 11:08:52;;;;;;;5.88;2.30;;;;;;;;;;5034436;28;20032;-73
2022/08/28 11:11:42;;;;;;;5.97;1.90;;;;;;;;;;5049059;28;20068;-74
2022/08/28 11:14:08;;;;;;;10.65;2.20;;;;;;;;;;5053867;28;20116;-73
2022/08/28 11:16:34;;;;;;;11.43;2.20;;;;;;;;;;5054921;28;20024;-74
2022/08/28 11:19:13;;;;;;;8.90;2.40;;;;;;;;;;5067647;28;20086;-76
2022/08/28 11:21:51;;;;;;;8.82;2.63;;;;;;;;;;5070912;28;20502;-76
2022/08/28 11:24:30;;;;;;;6.88;2.13;;;;;;;;;;5034974;28;20488;-75
2022/08/28 11:27:32;;;;;;;7.93;2.67;;;;;;;;;;5049406;28;20075;-75
2022/08/28 11:29:59;;;;;;;12.63;2.63;;;;;;;;;;5061569;28;20039;-72
2022/08/28 11:32:33;;;;;;;8.55;2.50;;;;;;;;;;5063112;28;20052;-74
2022/08/28 11:35:11;;;;;;;10.68;2.33;;;;;;;;;;5064421;28;20047;-74
2022/08/28 11:37:47;;;;;;;8.88;2.08;;;;;;;;;;5064531;28;20024;-73
2022/08/28 11:40:19;;;;;;;7.50;2.22;;;;;;;;;;5064708;28;20123;-74
2022/08/28 11:42:47;;;;;;;10.77;2.47;;;;;;;;;;5065006;28;20480;-73
2022/08/28 11:45:20;;;;;;;5.72;2.05;;;;;;;;;;5058043;28;20059;-73
2022/08/28 11:47:51;;;;;;;6.28;1.83;;;;;;;;;;5034670;28;20043;-73
2022/08/28 11:50:21;;;;;;;8.20;2.97;;;;;;;;;;5045871;28;20387;-74
2022/08/28 11:53:02;;;;;;;10.65;2.45;;;;;;;;;;5051457;28;20035;-73
2022/08/28 11:56:05;;;;;;;5.30;2.08;;;;;;;;;;5064861;28;20136;-73
2022/08/28 11:58:45;;;;;;;8.05;2.10;;;;;;;;;;5053275;28;20113;-75
2022/08/28 12:01:12;;;;;;;6.63;2.30;;;;;;;;;;5038605;28;20037;-75
2022/08/28 12:04:07;;;;;;;10.20;2.70;;;;;;;;;;5057015;28;20084;-75
2022/08/28 12:06:48;;;;;;;6.57;2.15;;;;;;;;;;5032927;28;20040;-76
2022/08/28 12:09:38;;;;;;;6.82;2.33;;;;;;;;;;5084396;28;20159;-76
2022/08/28 12:12:20;;;;;;;8.18;3.17;;;;;;;;;;5071943;28;20043;-75
2022/08/28 12:14:45;;;;;;;8.05;2.20;;;;;;;;;;5066895;28;20085;-76
2022/08/28 12:17:14;;;;;;;9.88;2.28;;;;;;;;;;5069442;28;20438;-75
2022/08/28 12:19:49;;;;;;;6.20;2.25;;;;;;;;;;5062631;28;20463;-75
2022/08/28 12:22:17;;;;;;;9.93;2.55;;;;;;;;;;5043836;28;20047;-75
2022/08/28 12:24:47;;;;;;;10.05;2.40;;;;;;;;;;5065199;28;20024;-75
2022/08/28 12:27:15;;;;;;;6.07;2.15;;;;;;;;;;5061753;28;20091;-74
2022/08/28 12:29:54;;;;;;;5.22;1.85;;;;;;;;;;5051255;28;20112;-75
2022/08/28 12:32:38;;;;;;;5.75;2.38;;;;;;;;;;5044008;28;20025;-74
2022/08/28 12:35:09;;;;;;;5.50;2.20;;;;;;;;;;5058771;28;20502;-74
2022/08/28 12:37:45;;;;;;;4.50;1.77;;;;;;;;;;5044280;28;20123;-74
2022/08/28 12:40:22;;;;;;;8.07;2.72;;;;;;;;;;5037165;28;20060;-74
2022/08/28 12:42:52;;;;;;;3.80;1.63;;;;;;;;;;5063435;28;20028;-74
2022/08/28 12:45:22;;;;;;;4.55;1.90;;;;;;;;;;5067363;28;20035;-74
2022/08/28 12:47:47;;;;;;;6.30;1.90;;;;;;;;;;5052508;28;20143;-74
2022/08/28 12:50:26;;;;;;;5.47;2.22;;;;;;;;;;5037835;28;20100;-74
2022/08/28 12:52:55;;;;;;;6.00;2.10;;;;;;;;;;5059032;28;20063;-74
2022/08/28 12:55:20;;;;;;;6.75;2.42;;;;;;;;;;5065206;28;20024;-74
2022/08/28 12:57:46;;;;;;;11.15;2.13;;;;;;;;;;5050240;28;20028;-75
2022/08/28 13:00:18;;;;;;;6.00;1.98;;;;;;;;;;5031375;28;20028;-75
2022/08/28 13:02:44;;;;;;;6.75;2.00;;;;;;;;;;5065900;28;20027;-75
2022/08/28 13:05:10;;;;;;;7.13;2.13;;;;;;;;;;5033301;28;20507;-73
2022/08/28 13:07:44;;;;;;;9.40;2.03;;;;;;;;;;5041258;28;20040;-73
2022/08/28 13:10:30;;;;;;;6.05;2.13;;;;;;;;;;5051437;28;20036;-74
2022/08/28 13:13:05;;;;;;;5.07;2.10;;;;;;;;;;5053341;28;20776;-73
2022/08/28 13:15:50;;;;;;;6.38;1.98;;;;;;;;;;5053589;28;20016;-75
2022/08/28 13:18:38;;;;;;;4.65;2.00;;;;;;;;;;5049379;28;20178;-75
2022/08/28 13:21:18;;;;;;;9.65;2.65;;;;;;;;;;5070011;28;20111;-75
2022/08/28 13:23:49;;;;;;;8.50;2.42;;;;;;;;;;5067443;28;20029;-73
2022/08/28 13:26:33;;;;;;;6.95;2.03;;;;;;;;;;5061799;28;20400;-73
2022/08/28 13:29:03;;;;;;;7.15;2.20;;;;;;;;;;5039831;28;20080;-73
2022/08/28 13:31:31;;;;;;;5.07;2.28;;;;;;;;;;5033269;28;20519;-74
2022/08/28 13:34:11;;;;;;;7.78;2.50;;;;;;;;;;5054087;28;20036;-74
2022/08/28 13:36:48;;;;;;;6.10;2.25;;;;;;;;;;5066481;28;20036;-75
2022/08/28 13:39:16;;;;;;;6.18;2.25;;;;;;;;;;5046901;28;20070;-74
2022/08/28 13:41:43;;;;;;;4.53;1.90;;;;;;;;;;5065541;28;20528;-74
2022/08/28 13:44:08;;;;;;;8.65;2.45;;;;;;;;;;5037770;28;20081;-74
2022/08/28 13:46:34;;;;;;;7.32;2.28;;;;;;;;;;5035984;28;20087;-74
2022/08/28 13:48:59;;;;;;;8.68;2.33;;;;;;;;;;5056621;28;20021;-74
2022/08/28 13:51:25;;;;;;;8.25;2.53;;;;;;;;;;5048998;28;20033;-74
2022/08/28 13:53:51;;;;;;;9.70;2.75;;;;;;;;;;5029694;28;20032;-74
2022/08/28 13:56:16;;;;;;;5.47;2.42;;;;;;;;;;5049105;28;20111;-74
2022/08/28 13:58:43;;;;;;;6.32;2.30;;;;;;;;;;5056474;28;20115;-74
2022/08/28 14:01:08;;;;;;;6.15;2.70;;;;;;;;;;5066779;28;20464;-74
2022/08/28 14:03:37;;;;;;;5.55;2.00;;;;;;;;;;5030839;28;20096;-74
2022/08/28 14:06:13;;;;;;;7.68;2.47;;;;;;;;;;5032035;28;20051;-74
2022/08/28 14:08:39;;;;;;;8.25;1.88;;;;;;;;;;5030201;28;20028;-74
2022/08/28 14:11:06;;;;;;;4.35;1.70;;;;;;;;;;5051295;28;20440;-74
2022/08/28 14:13:31;;;;;;;3.97;1.70;;;;;;;;;;5043312;28;20041;-74
2022/08/28 14:15:57;;;;;;;8.70;1.75;;;;;;;;;;5047674;28;20485;-73
2022/08/28 14:18:23;;;;;;;4.43;1.67;;;;;;;;;;5054427;28;20072;-74
2022/08/28 14:20:48;;;;;;;7.75;2.45;;;;;;;;;;5035758;28;20094;-75
2022/08/28 14:23:14;;;;;;;6.22;1.88;;;;;;;;;;5044667;28;20074;-75
2022/08/28 14:25:46;;;;;;;7.05;1.90;;;;;;;;;;5048365;28;20053;-74
2022/08/28 14:28:13;;;;;;;4.13;1.90;;;;;;;;;;5067648;28;20069;-75
2022/08/28 14:30:42;;;;;;;8.00;2.00;;;;;;;;;;5049555;28;20040;-74
2022/08/28 14:33:08;;;;;;;6.47;1.90;;;;;;;;;;5055078;28;20103;-74
2022/08/28 14:35:37;;;;;;;8.43;1.85;;;;;;;;;;5054980;28;20108;-75
2022/08/28 14:38:03;;;;;;;8.82;2.42;;;;;;;;;;5034582;28;20032;-74
2022/08/28 14:40:28;;;;;;;8.75;1.70;;;;;;;;;;5052225;28;20388;-74
2022/08/28 14:42:53;;;;;;;4.28;1.52;;;;;;;;;;5072837;28;20068;-74
2022/08/28 14:45:19;;;;;;;8.98;2.00;;;;;;;;;;5039520;28;20056;-74
2022/08/28 14:47:44;;;;;;;4.07;1.60;;;;;;;;;;5062841;28;20052;-75
2022/08/28 14:50:10;;;;;;;3.88;1.48;;;;;;;;;;5054550;28;20427;-75